Anchorville, MI (48004)

12:25 AM EST on February 24, 2017 (GMT -0500)
Fair Haven | | Change Station

Elev 580 ft 42.68 °N, 82.66 °W | Updated 15 minutes ago

Overcast
Overcast
38.5 °F
Feels Like 36 °F
N
3.7
Wind Variable Wind from NE

Today
High -- | Low -- °F
--% Chance of Precip.
Yesterday
High -- | Low -- °F
Precip. -- in
Pressure 29.84 in
Visibility 10.0 miles
Clouds Few 3900 ft
Scattered Clouds 7000 ft
Overcast 8500 ft
Windchill 36 °F
Dew Point 34 °F
Humidity 85%
Rainfall 0.00 in
Snow Depth Not available.
7:14 AM 6:14 PM
Waning Crescent, 7% visible
SPECI KMTC 240520Z AUTO 03006KT 10SM -RA FEW039 SCT070 OVC085 04/02 A2984 RMK AO2 RAB20
Pressure 29.84 in
Visibility 10.0 miles
Clouds Few 3900 ft
Scattered Clouds 7000 ft
Overcast 8500 ft
Windchill 36 °F
Dew Point 34 °F
Humidity 85%
Rainfall 0.00 in
Snow Depth Not available.
7:14 AM 6:14 PM
Waning Crescent, 7% visible
SPECI KMTC 240520Z AUTO 03006KT 10SM -RA FEW039 SCT070 OVC085 04/02 A2984 RMK AO2 RAB20

Get Your Daily Forecast Email!

Thanks for signing up!

Be on the lookout for a verification email in your inbox.

You'll start receiving the daily forecast at 8 AM.

×

10-Day Weather Forecast

Almanac

Astronomy

Feb. 24, 2017 Rise Set
Actual Time
Civil Twilight
Nautical Twilight
Astronomical Twilight
Moon
Length of Visible Light
Length of Day
Tomorrow will be .
, % of the Moon is Illuminated

Today's Extremes

State Highs State Lows

Community

WunderPhotos

Upload Photos

1,962,540 photos uploaded!

WunderBlog® & News

Nearby

Air Quality

  Air Quality AQ Index Pollutant
Not available.

Snow Depth

Station Depth Elevation

Earthquake Activity

City Distance Mag. Time & Date
Minimum magnitude displayed is 2.5.

Coastal Water Temperatures

Place Temperature

Stations

Nearby Weather Stations

Station Location Temp. Windchill Dew Point Humidity Wind Precip. Elev Updated Type
                   

Watches & Warnings

There are currently no watches in effect.